sensor_id;sensor_type;location;lat;lon;timestamp;temperature;humidity
5775;DHT22;2913;51.120;6.772;2023-12-14T00:01:18;9.10;99.90
5775;DHT22;2913;51.120;6.772;2023-12-14T00:03:43;9.10;99.90
5775;DHT22;2913;51.120;6.772;2023-12-14T00:06:13;9.20;99.90
5775;DHT22;2913;51.120;6.772;2023-12-14T00:08:39;9.20;99.90
5775;DHT22;2913;51.120;6.772;2023-12-14T00:16:02;9.10;99.90
5775;DHT22;2913;51.120;6.772;2023-12-14T00:18:30;9.10;99.90
5775;DHT22;2913;51.120;6.772;2023-12-14T00:20:58;9.10;99.90
5775;DHT22;2913;51.120;6.772;2023-12-14T00:23:26;9.10;99.90
5775;DHT22;2913;51.120;6.772;2023-12-14T00:25:54;9.20;99.90
5775;DHT22;2913;51.120;6.772;2023-12-14T00:28:22;9.20;99.90
5775;DHT22;2913;51.120;6.772;2023-12-14T00:30:48;9.20;99.90
5775;DHT22;2913;51.120;6.772;2023-12-14T00:33:13;9.20;99.90
5775;DHT22;2913;51.120;6.772;2023-12-14T00:35:39;9.20;99.90
5775;DHT22;2913;51.120;6.772;2023-12-14T00:38:07;9.20;99.90
5775;DHT22;2913;51.120;6.772;2023-12-14T00:43:01;9.20;99.90
5775;DHT22;2913;51.120;6.772;2023-12-14T00:45:29;9.20;99.90
5775;DHT22;2913;51.120;6.772;2023-12-14T00:47:54;9.20;99.90
5775;DHT22;2913;51.120;6.772;2023-12-14T00:50:23;9.20;99.90
5775;DHT22;2913;51.120;6.772;2023-12-14T00:52:48;9.20;99.90
5775;DHT22;2913;51.120;6.772;2023-12-14T00:55:16;9.10;99.90
5775;DHT22;2913;51.120;6.772;2023-12-14T00:57:41;9.10;99.90
5775;DHT22;2913;51.120;6.772;2023-12-14T01:00:10;9.10;99.90
5775;DHT22;2913;51.120;6.772;2023-12-14T01:02:36;9.10;99.90
5775;DHT22;2913;51.120;6.772;2023-12-14T01:05:02;9.00;99.90
5775;DHT22;2913;51.120;6.772;2023-12-14T01:07:27;9.00;99.90
5775;DHT22;2913;51.120;6.772;2023-12-14T01:09:53;9.10;99.90
5775;DHT22;2913;51.120;6.772;2023-12-14T01:12:18;8.90;99.90
5775;DHT22;2913;51.120;6.772;2023-12-14T01:14:44;9.00;99.90
5775;DHT22;2913;51.120;6.772;2023-12-14T01:17:09;8.90;99.90
5775;DHT22;2913;51.120;6.772;2023-12-14T01:19:35;8.90;99.90
5775;DHT22;2913;51.120;6.772;2023-12-14T01:22:01;8.90;99.90
5775;DHT22;2913;51.120;6.772;2023-12-14T01:24:28;8.90;99.90
5775;DHT22;2913;51.120;6.772;2023-12-14T01:31:50;9.00;99.90
5775;DHT22;2913;51.120;6.772;2023-12-14T01:34:16;8.90;99.90
5775;DHT22;2913;51.120;6.772;2023-12-14T01:36:44;8.90;99.90
5775;DHT22;2913;51.120;6.772;2023-12-14T01:39:10;8.80;99.90
5775;DHT22;2913;51.120;6.772;2023-12-14T01:41:40;8.80;99.90
5775;DHT22;2913;51.120;6.772;2023-12-14T01:44:06;8.90;99.90
5775;DHT22;2913;51.120;6.772;2023-12-14T01:46:31;8.90;99.90
5775;DHT22;2913;51.120;6.772;2023-12-14T01:51:23;8.70;99.90
5775;DHT22;2913;51.120;6.772;2023-12-14T01:56:14;8.60;99.90
5775;DHT22;2913;51.120;6.772;2023-12-14T01:58:44;8.60;99.90
5775;DHT22;2913;51.120;6.772;2023-12-14T02:03:48;8.50;99.90
5775;DHT22;2913;51.120;6.772;2023-12-14T02:06:17;8.40;99.90
5775;DHT22;2913;51.120;6.772;2023-12-14T02:08:46;8.40;99.90
5775;DHT22;2913;51.120;6.772;2023-12-14T02:11:11;8.20;99.90
5775;DHT22;2913;51.120;6.772;2023-12-14T02:13:37;8.20;99.90
5775;DHT22;2913;51.120;6.772;2023-12-14T02:16:03;8.20;99.90
5775;DHT22;2913;51.120;6.772;2023-12-14T02:18:31;8.10;99.90
5775;DHT22;2913;51.120;6.772;2023-12-14T02:20:57;8.10;99.90
5775;DHT22;2913;51.120;6.772;2023-12-14T02:23:25;8.10;99.90
5775;DHT22;2913;51.120;6.772;2023-12-14T02:25:53;8.10;99.90
5775;DHT22;2913;51.120;6.772;2023-12-14T02:28:18;8.10;99.90
5775;DHT22;2913;51.120;6.772;2023-12-14T02:30:44;8.00;99.90
5775;DHT22;2913;51.120;6.772;2023-12-14T02:33:14;8.00;99.90
5775;DHT22;2913;51.120;6.772;2023-12-14T02:35:40;8.00;99.90
5775;DHT22;2913;51.120;6.772;2023-12-14T02:38:08;8.00;99.90
5775;DHT22;2913;51.120;6.772;2023-12-14T02:40:36;8.00;99.90
5775;DHT22;2913;51.120;6.772;2023-12-14T02:43:01;7.90;99.90
5775;DHT22;2913;51.120;6.772;2023-12-14T02:45:27;7.80;99.90
5775;DHT22;2913;51.120;6.772;2023-12-14T02:47:52;7.90;99.90
5775;DHT22;2913;51.120;6.772;2023-12-14T02:50:21;7.90;99.90
5775;DHT22;2913;51.120;6.772;2023-12-14T02:52:47;7.90;99.90
5775;DHT22;2913;51.120;6.772;2023-12-14T02:55:13;7.80;99.90
5775;DHT22;2913;51.120;6.772;2023-12-14T02:57:38;7.90;99.90
5775;DHT22;2913;51.120;6.772;2023-12-14T03:00:04;7.90;99.90
5775;DHT22;2913;51.120;6.772;2023-12-14T03:02:30;7.90;99.90
5775;DHT22;2913;51.120;6.772;2023-12-14T03:04:58;7.80;99.90
5775;DHT22;2913;51.120;6.772;2023-12-14T03:07:24;7.90;99.90
5775;DHT22;2913;51.120;6.772;2023-12-14T03:09:51;7.80;99.90
5775;DHT22;2913;51.120;6.772;2023-12-14T03:12:21;7.80;99.90
5775;DHT22;2913;51.120;6.772;2023-12-14T03:14:49;7.70;99.90
5775;DHT22;2913;51.120;6.772;2023-12-14T03:17:17;7.70;99.90
5775;DHT22;2913;51.120;6.772;2023-12-14T03:19:43;7.80;99.90
5775;DHT22;2913;51.120;6.772;2023-12-14T03:22:09;7.70;99.90
5775;DHT22;2913;51.120;6.772;2023-12-14T03:24:35;7.80;99.90
5775;DHT22;2913;51.120;6.772;2023-12-14T03:27:04;7.80;99.90
5775;DHT22;2913;51.120;6.772;2023-12-14T03:29:32;7.70;99.90
5775;DHT22;2913;51.120;6.772;2023-12-14T03:31:58;7.70;99.90
5775;DHT22;2913;51.120;6.772;2023-12-14T03:34:26;7.70;99.90
5775;DHT22;2913;51.120;6.772;2023-12-14T03:36:52;7.70;99.90
5775;DHT22;2913;51.120;6.772;2023-12-14T03:39:20;7.60;99.90
5775;DHT22;2913;51.120;6.772;2023-12-14T03:41:48;7.60;99.90
5775;DHT22;2913;51.120;6.772;2023-12-14T03:44:14;7.60;99.90
5775;DHT22;2913;51.120;6.772;2023-12-14T03:46:41;7.60;99.90
5775;DHT22;2913;51.120;6.772;2023-12-14T03:49:09;7.50;99.90
5775;DHT22;2913;51.120;6.772;2023-12-14T03:51:37;7.50;99.90
5775;DHT22;2913;51.120;6.772;2023-12-14T03:54:05;7.40;99.90
5775;DHT22;2913;51.120;6.772;2023-12-14T03:56:31;7.40;99.90
5775;DHT22;2913;51.120;6.772;2023-12-14T03:58:56;7.50;99.90
5775;DHT22;2913;51.120;6.772;2023-12-14T04:01:23;7.40;99.90
5775;DHT22;2913;51.120;6.772;2023-12-14T04:03:48;7.40;99.90
5775;DHT22;2913;51.120;6.772;2023-12-14T04:06:15;7.40;99.90
5775;DHT22;2913;51.120;6.772;2023-12-14T04:08:41;7.40;99.90
5775;DHT22;2913;51.120;6.772;2023-12-14T04:11:09;7.40;99.90
5775;DHT22;2913;51.120;6.772;2023-12-14T04:13:35;7.50;99.90
5775;DHT22;2913;51.120;6.772;2023-12-14T04:16:01;7.50;99.90
5775;DHT22;2913;51.120;6.772;2023-12-14T04:18:26;7.50;99.90
5775;DHT22;2913;51.120;6.772;2023-12-14T04:20:54;7.40;99.90
5775;DHT22;2913;51.120;6.772;2023-12-14T04:23:20;7.40;99.90
5775;DHT22;2913;51.120;6.772;2023-12-14T04:25:48;7.30;99.90
5775;DHT22;2913;51.120;6.772;2023-12-14T04:28:13;7.30;99.90
5775;DHT22;2913;51.120;6.772;2023-12-14T04:30:39;7.30;99.90
5775;DHT22;2913;51.120;6.772;2023-12-14T04:33:07;7.30;99.90
5775;DHT22;2913;51.120;6.772;2023-12-14T04:35:35;7.30;99.90
5775;DHT22;2913;51.120;6.772;2023-12-14T04:38:04;7.30;99.90
5775;DHT22;2913;51.120;6.772;2023-12-14T04:40:31;7.30;99.90
5775;DHT22;2913;51.120;6.772;2023-12-14T04:42:58;7.20;99.90
5775;DHT22;2913;51.120;6.772;2023-12-14T04:45:26;7.10;99.90
5775;DHT22;2913;51.120;6.772;2023-12-14T04:47:56;7.10;99.90
5775;DHT22;2913;51.120;6.772;2023-12-14T04:52:49;7.10;99.90
5775;DHT22;2913;51.120;6.772;2023-12-14T04:55:17;7.10;99.90
5775;DHT22;2913;51.120;6.772;2023-12-14T04:57:44;7.20;99.90
5775;DHT22;2913;51.120;6.772;2023-12-14T05:00:12;7.10;99.90
5775;DHT22;2913;51.120;6.772;2023-12-14T05:02:38;7.20;99.90
5775;DHT22;2913;51.120;6.772;2023-12-14T05:05:06;7.10;99.90
5775;DHT22;2913;51.120;6.772;2023-12-14T05:07:31;7.10;99.90
5775;DHT22;2913;51.120;6.772;2023-12-14T05:09:57;7.10;99.90
5775;DHT22;2913;51.120;6.772;2023-12-14T05:12:22;7.10;99.90
5775;DHT22;2913;51.120;6.772;2023-12-14T05:14:51;7.10;99.90
5775;DHT22;2913;51.120;6.772;2023-12-14T05:17:16;7.20;99.90
5775;DHT22;2913;51.120;6.772;2023-12-14T05:19:42;7.10;99.90
5775;DHT22;2913;51.120;6.772;2023-12-14T05:22:08;7.10;99.90
5775;DHT22;2913;51.120;6.772;2023-12-14T05:24:33;7.00;99.90
5775;DHT22;2913;51.120;6.772;2023-12-14T05:26:59;7.00;99.90
5775;DHT22;2913;51.120;6.772;2023-12-14T05:29:25;7.00;99.90
5775;DHT22;2913;51.120;6.772;2023-12-14T05:31:50;7.00;99.90
5775;DHT22;2913;51.120;6.772;2023-12-14T05:36:44;7.00;99.90
5775;DHT22;2913;51.120;6.772;2023-12-14T05:39:12;7.00;99.90
5775;DHT22;2913;51.120;6.772;2023-12-14T05:41:43;7.00;99.90
5775;DHT22;2913;51.120;6.772;2023-12-14T05:44:09;6.90;99.90
5775;DHT22;2913;51.120;6.772;2023-12-14T05:46:36;7.00;99.90
5775;DHT22;2913;51.120;6.772;2023-12-14T05:49:02;7.00;99.90
5775;DHT22;2913;51.120;6.772;2023-12-14T05:51:32;7.10;99.90
5775;DHT22;2913;51.120;6.772;2023-12-14T05:53:58;7.00;99.90
5775;DHT22;2913;51.120;6.772;2023-12-14T05:56:27;7.00;99.90
5775;DHT22;2913;51.120;6.772;2023-12-14T05:58:53;7.00;99.90
5775;DHT22;2913;51.120;6.772;2023-12-14T06:01:18;7.00;99.90
5775;DHT22;2913;51.120;6.772;2023-12-14T06:03:47;7.00;99.90
5775;DHT22;2913;51.120;6.772;2023-12-14T06:06:12;7.00;99.90
5775;DHT22;2913;51.120;6.772;2023-12-14T06:08:44;6.90;99.90
5775;DHT22;2913;51.120;6.772;2023-12-14T06:11:10;6.90;99.90
5775;DHT22;2913;51.120;6.772;2023-12-14T06:13:38;6.90;99.90
5775;DHT22;2913;51.120;6.772;2023-12-14T06:16:04;7.00;99.90
5775;DHT22;2913;51.120;6.772;2023-12-14T06:18:30;7.10;99.90
5775;DHT22;2913;51.120;6.772;2023-12-14T06:20:57;7.10;99.90
5775;DHT22;2913;51.120;6.772;2023-12-14T06:23:25;7.00;99.90
5775;DHT22;2913;51.120;6.772;2023-12-14T06:25:54;7.00;99.90
5775;DHT22;2913;51.120;6.772;2023-12-14T06:28:23;7.10;99.90
5775;DHT22;2913;51.120;6.772;2023-12-14T06:30:48;7.00;99.90
5775;DHT22;2913;51.120;6.772;2023-12-14T06:33:14;7.10;99.90
5775;DHT22;2913;51.120;6.772;2023-12-14T06:35:39;7.00;99.90
5775;DHT22;2913;51.120;6.772;2023-12-14T06:38:05;7.00;99.90
5775;DHT22;2913;51.120;6.772;2023-12-14T06:40:30;7.00;99.90
5775;DHT22;2913;51.120;6.772;2023-12-14T06:47:50;7.00;99.90
5775;DHT22;2913;51.120;6.772;2023-12-14T06:50:16;7.00;99.90
5775;DHT22;2913;51.120;6.772;2023-12-14T06:52:41;7.00;99.90
5775;DHT22;2913;51.120;6.772;2023-12-14T06:55:07;7.00;99.90
5775;DHT22;2913;51.120;6.772;2023-12-14T06:57:36;7.00;99.90
5775;DHT22;2913;51.120;6.772;2023-12-14T07:00:04;6.90;99.90
5775;DHT22;2913;51.120;6.772;2023-12-14T07:02:30;6.90;99.90
5775;DHT22;2913;51.120;6.772;2023-12-14T07:04:57;6.90;99.90
5775;DHT22;2913;51.120;6.772;2023-12-14T07:07:23;6.90;99.90
5775;DHT22;2913;51.120;6.772;2023-12-14T07:09:51;6.80;99.90
5775;DHT22;2913;51.120;6.772;2023-12-14T07:12:16;6.90;99.90
5775;DHT22;2913;51.120;6.772;2023-12-14T07:14:44;6.80;99.90
5775;DHT22;2913;51.120;6.772;2023-12-14T07:17:10;6.90;99.90
5775;DHT22;2913;51.120;6.772;2023-12-14T07:19:37;6.90;99.90
5775;DHT22;2913;51.120;6.772;2023-12-14T07:22:05;7.00;99.90
5775;DHT22;2913;51.120;6.772;2023-12-14T07:24:31;7.00;99.90
5775;DHT22;2913;51.120;6.772;2023-12-14T07:26:57;7.00;99.90
5775;DHT22;2913;51.120;6.772;2023-12-14T07:29:25;7.10;99.90
5775;DHT22;2913;51.120;6.772;2023-12-14T07:31:51;6.90;99.90
5775;DHT22;2913;51.120;6.772;2023-12-14T07:34:16;7.00;99.90
5775;DHT22;2913;51.120;6.772;2023-12-14T07:36:42;7.00;99.90
5775;DHT22;2913;51.120;6.772;2023-12-14T07:39:08;7.00;99.90
5775;DHT22;2913;51.120;6.772;2023-12-14T07:41:34;6.90;99.90
5775;DHT22;2913;51.120;6.772;2023-12-14T07:44:01;7.00;99.90
5775;DHT22;2913;51.120;6.772;2023-12-14T07:46:29;7.00;99.90
5775;DHT22;2913;51.120;6.772;2023-12-14T07:48:57;7.00;99.90
5775;DHT22;2913;51.120;6.772;2023-12-14T07:51:22;7.00;99.90
5775;DHT22;2913;51.120;6.772;2023-12-14T07:53:50;7.00;99.90
5775;DHT22;2913;51.120;6.772;2023-12-14T07:56:16;7.00;99.90
5775;DHT22;2913;51.120;6.772;2023-12-14T07:58:44;7.00;99.90
5775;DHT22;2913;51.120;6.772;2023-12-14T08:01:14;7.00;99.90
5775;DHT22;2913;51.120;6.772;2023-12-14T08:03:39;7.00;99.90
5775;DHT22;2913;51.120;6.772;2023-12-14T08:06:05;7.10;99.90
5775;DHT22;2913;51.120;6.772;2023-12-14T08:08:31;7.00;99.90
5775;DHT22;2913;51.120;6.772;2023-12-14T08:11:01;7.00;99.90
5775;DHT22;2913;51.120;6.772;2023-12-14T08:13:28;7.00;99.90
5775;DHT22;2913;51.120;6.772;2023-12-14T08:15:54;6.90;99.90
5775;DHT22;2913;51.120;6.772;2023-12-14T08:18:19;7.00;99.90
5775;DHT22;2913;51.120;6.772;2023-12-14T08:20:45;6.90;99.90
5775;DHT22;2913;51.120;6.772;2023-12-14T08:23:10;6.80;99.90
5775;DHT22;2913;51.120;6.772;2023-12-14T08:28:02;6.70;99.90
5775;DHT22;2913;51.120;6.772;2023-12-14T08:30:28;6.80;99.90
5775;DHT22;2913;51.120;6.772;2023-12-14T08:32:53;6.80;99.90
5775;DHT22;2913;51.120;6.772;2023-12-14T08:35:19;6.70;99.90
5775;DHT22;2913;51.120;6.772;2023-12-14T08:37:47;6.70;99.90
5775;DHT22;2913;51.120;6.772;2023-12-14T08:42:41;6.60;99.90
5775;DHT22;2913;51.120;6.772;2023-12-14T08:45:08;6.60;99.90
5775;DHT22;2913;51.120;6.772;2023-12-14T08:47:39;6.50;99.90
5775;DHT22;2913;51.120;6.772;2023-12-14T08:50:07;6.50;99.90
5775;DHT22;2913;51.120;6.772;2023-12-14T08:52:38;6.50;99.90
5775;DHT22;2913;51.120;6.772;2023-12-14T08:55:04;6.50;99.90
5775;DHT22;2913;51.120;6.772;2023-12-14T08:57:32;6.50;99.90
5775;DHT22;2913;51.120;6.772;2023-12-14T09:00:01;6.40;99.90
5775;DHT22;2913;51.120;6.772;2023-12-14T09:02:32;6.30;99.90
5775;DHT22;2913;51.120;6.772;2023-12-14T09:04:57;6.40;99.90
5775;DHT22;2913;51.120;6.772;2023-12-14T09:07:25;6.40;99.90
5775;DHT22;2913;51.120;6.772;2023-12-14T09:09:53;6.40;99.90
5775;DHT22;2913;51.120;6.772;2023-12-14T09:14:45;6.40;99.90
5775;DHT22;2913;51.120;6.772;2023-12-14T09:17:11;6.40;99.90
5775;DHT22;2913;51.120;6.772;2023-12-14T09:19:37;6.40;99.90
5775;DHT22;2913;51.120;6.772;2023-12-14T09:22:02;6.50;99.90
5775;DHT22;2913;51.120;6.772;2023-12-14T09:26:54;6.40;99.90
5775;DHT22;2913;51.120;6.772;2023-12-14T09:31:48;6.50;99.90
5775;DHT22;2913;51.120;6.772;2023-12-14T09:34:14;6.60;99.90
5775;DHT22;2913;51.120;6.772;2023-12-14T09:36:40;6.60;99.90
5775;DHT22;2913;51.120;6.772;2023-12-14T09:41:37;6.50;99.90
5775;DHT22;2913;51.120;6.772;2023-12-14T09:44:05;6.60;99.90
5775;DHT22;2913;51.120;6.772;2023-12-14T09:46:35;6.60;99.90
5775;DHT22;2913;51.120;6.772;2023-12-14T09:49:04;6.50;99.90
5775;DHT22;2913;51.120;6.772;2023-12-14T09:53:56;6.60;99.90
5775;DHT22;2913;51.120;6.772;2023-12-14T09:56:25;6.70;99.90
5775;DHT22;2913;51.120;6.772;2023-12-14T09:58:51;6.70;99.90
5775;DHT22;2913;51.120;6.772;2023-12-14T10:01:26;6.70;99.90
5775;DHT22;2913;51.120;6.772;2023-12-14T10:04:21;6.80;99.90
5775;DHT22;2913;51.120;6.772;2023-12-14T10:06:48;6.80;99.90
5775;DHT22;2913;51.120;6.772;2023-12-14T10:09:14;6.90;99.90
5775;DHT22;2913;51.120;6.772;2023-12-14T10:11:44;6.90;99.90
5775;DHT22;2913;51.120;6.772;2023-12-14T10:14:21;7.00;99.90
5775;DHT22;2913;51.120;6.772;2023-12-14T10:16:48;6.90;99.90
5775;DHT22;2913;51.120;6.772;2023-12-14T10:19:16;7.00;99.90
5775;DHT22;2913;51.120;6.772;2023-12-14T10:21:42;7.10;99.90
5775;DHT22;2913;51.120;6.772;2023-12-14T10:24:07;7.00;99.90
5775;DHT22;2913;51.120;6.772;2023-12-14T10:26:33;7.00;99.90
5775;DHT22;2913;51.120;6.772;2023-12-14T10:28:58;7.10;99.90
5775;DHT22;2913;51.120;6.772;2023-12-14T10:31:30;7.00;99.90
5775;DHT22;2913;51.120;6.772;2023-12-14T10:33:56;7.00;99.90
5775;DHT22;2913;51.120;6.772;2023-12-14T10:36:24;7.00;99.90
5775;DHT22;2913;51.120;6.772;2023-12-14T10:38:57;7.10;99.90
5775;DHT22;2913;51.120;6.772;2023-12-14T10:41:23;7.00;99.90
5775;DHT22;2913;51.120;6.772;2023-12-14T10:43:50;7.10;99.90
5775;DHT22;2913;51.120;6.772;2023-12-14T10:46:16;7.00;99.90
5775;DHT22;2913;51.120;6.772;2023-12-14T10:48:47;6.90;99.90
5775;DHT22;2913;51.120;6.772;2023-12-14T10:51:13;7.00;99.90
5775;DHT22;2913;51.120;6.772;2023-12-14T10:53:42;7.00;99.90
5775;DHT22;2913;51.120;6.772;2023-12-14T10:56:15;6.90;99.90
5775;DHT22;2913;51.120;6.772;2023-12-14T10:58:57;6.90;99.90
5775;DHT22;2913;51.120;6.772;2023-12-14T11:01:30;6.90;99.90
5775;DHT22;2913;51.120;6.772;2023-12-14T11:03:59;6.80;99.90
5775;DHT22;2913;51.120;6.772;2023-12-14T11:08:54;6.80;99.90
5775;DHT22;2913;51.120;6.772;2023-12-14T11:11:28;6.80;99.90
5775;DHT22;2913;51.120;6.772;2023-12-14T11:13:59;6.70;99.90
5775;DHT22;2913;51.120;6.772;2023-12-14T11:16:26;6.70;99.90
5775;DHT22;2913;51.120;6.772;2023-12-14T11:24:38;6.80;99.90
5775;DHT22;2913;51.120;6.772;2023-12-14T11:27:07;6.90;99.90
5775;DHT22;2913;51.120;6.772;2023-12-14T11:29:33;6.90;99.90
5775;DHT22;2913;51.120;6.772;2023-12-14T11:32:03;6.90;99.90
5775;DHT22;2913;51.120;6.772;2023-12-14T11:34:30;6.90;99.90
5775;DHT22;2913;51.120;6.772;2023-12-14T11:36:56;7.00;99.90
5775;DHT22;2913;51.120;6.772;2023-12-14T11:39:30;7.10;99.90
5775;DHT22;2913;51.120;6.772;2023-12-14T11:42:03;7.00;99.90
5775;DHT22;2913;51.120;6.772;2023-12-14T11:44:29;7.00;99.90
5775;DHT22;2913;51.120;6.772;2023-12-14T11:49:24;7.00;99.90
5775;DHT22;2913;51.120;6.772;2023-12-14T11:51:55;7.00;99.90
5775;DHT22;2913;51.120;6.772;2023-12-14T11:54:21;7.10;99.90
5775;DHT22;2913;51.120;6.772;2023-12-14T11:56:48;7.00;99.90
5775;DHT22;2913;51.120;6.772;2023-12-14T11:59:15;7.00;99.90
5775;DHT22;2913;51.120;6.772;2023-12-14T12:01:57;7.10;99.90
5775;DHT22;2913;51.120;6.772;2023-12-14T12:04:24;7.10;99.90
5775;DHT22;2913;51.120;6.772;2023-12-14T12:06:50;7.10;99.90
5775;DHT22;2913;51.120;6.772;2023-12-14T12:09:42;7.10;99.90
5775;DHT22;2913;51.120;6.772;2023-12-14T12:12:09;7.20;99.90
5775;DHT22;2913;51.120;6.772;2023-12-14T12:14:35;7.10;99.90
5775;DHT22;2913;51.120;6.772;2023-12-14T12:17:02;7.20;99.90
5775;DHT22;2913;51.120;6.772;2023-12-14T12:19:30;7.20;99.90
5775;DHT22;2913;51.120;6.772;2023-12-14T12:22:03;7.20;99.90
5775;DHT22;2913;51.120;6.772;2023-12-14T12:24:29;7.20;99.90
5775;DHT22;2913;51.120;6.772;2023-12-14T12:26:55;7.10;99.90
5775;DHT22;2913;51.120;6.772;2023-12-14T12:29:24;7.10;99.90
5775;DHT22;2913;51.120;6.772;2023-12-14T12:31:49;7.10;99.90
5775;DHT22;2913;51.120;6.772;2023-12-14T12:34:18;7.20;99.90
5775;DHT22;2913;51.120;6.772;2023-12-14T12:36:44;7.10;99.90
5775;DHT22;2913;51.120;6.772;2023-12-14T12:39:09;7.20;99.90
5775;DHT22;2913;51.120;6.772;2023-12-14T12:41:35;7.20;99.90
5775;DHT22;2913;51.120;6.772;2023-12-14T12:44:07;7.10;99.90
5775;DHT22;2913;51.120;6.772;2023-12-14T12:46:34;7.10;99.90
5775;DHT22;2913;51.120;6.772;2023-12-14T12:49:01;7.10;99.90
5775;DHT22;2913;51.120;6.772;2023-12-14T12:51:27;7.10;99.90
5775;DHT22;2913;51.120;6.772;2023-12-14T12:53:56;7.10;99.90
5775;DHT22;2913;51.120;6.772;2023-12-14T12:56:25;7.10;99.90
5775;DHT22;2913;51.120;6.772;2023-12-14T12:58:52;7.00;99.90
5775;DHT22;2913;51.120;6.772;2023-12-14T13:01:20;7.00;99.90
5775;DHT22;2913;51.120;6.772;2023-12-14T13:03:52;6.90;99.90
5775;DHT22;2913;51.120;6.772;2023-12-14T13:06:18;6.90;99.90
5775;DHT22;2913;51.120;6.772;2023-12-14T13:08:43;6.80;99.90
5775;DHT22;2913;51.120;6.772;2023-12-14T13:11:09;6.80;99.90
5775;DHT22;2913;51.120;6.772;2023-12-14T13:13:35;6.80;99.90
5775;DHT22;2913;51.120;6.772;2023-12-14T13:18:26;6.80;99.90
5775;DHT22;2913;51.120;6.772;2023-12-14T13:20:52;6.80;99.90
5775;DHT22;2913;51.120;6.772;2023-12-14T13:23:17;6.90;99.90
5775;DHT22;2913;51.120;6.772;2023-12-14T13:25:43;6.90;99.90
5775;DHT22;2913;51.120;6.772;2023-12-14T13:28:10;6.90;99.90
5775;DHT22;2913;51.120;6.772;2023-12-14T13:30:36;6.90;99.90
5775;DHT22;2913;51.120;6.772;2023-12-14T13:33:04;6.90;99.90
5775;DHT22;2913;51.120;6.772;2023-12-14T13:35:34;7.00;99.90
5775;DHT22;2913;51.120;6.772;2023-12-14T13:38:00;7.00;99.90
5775;DHT22;2913;51.120;6.772;2023-12-14T13:40:28;6.90;99.90
5775;DHT22;2913;51.120;6.772;2023-12-14T13:42:53;7.00;99.90
5775;DHT22;2913;51.120;6.772;2023-12-14T13:45:19;7.00;99.90
5775;DHT22;2913;51.120;6.772;2023-12-14T13:47:44;7.00;99.90
5775;DHT22;2913;51.120;6.772;2023-12-14T13:52:36;6.80;99.90
5775;DHT22;2913;51.120;6.772;2023-12-14T13:57:30;6.50;99.90
5775;DHT22;2913;51.120;6.772;2023-12-14T13:59:56;6.60;99.90
5775;DHT22;2913;51.120;6.772;2023-12-14T14:07:14;6.50;99.90
5775;DHT22;2913;51.120;6.772;2023-12-14T14:09:46;6.50;99.90
5775;DHT22;2913;51.120;6.772;2023-12-14T14:17:05;6.30;99.90
5775;DHT22;2913;51.120;6.772;2023-12-14T14:19:35;6.30;99.90
5775;DHT22;2913;51.120;6.772;2023-12-14T14:22:00;6.40;99.90
5775;DHT22;2913;51.120;6.772;2023-12-14T14:26:52;6.40;99.90
5775;DHT22;2913;51.120;6.772;2023-12-14T14:29:20;6.40;99.90
5775;DHT22;2913;51.120;6.772;2023-12-14T14:34:14;6.50;99.90
5775;DHT22;2913;51.120;6.772;2023-12-14T14:36:40;6.50;99.90
5775;DHT22;2913;51.120;6.772;2023-12-14T14:41:33;6.60;99.90
5775;DHT22;2913;51.120;6.772;2023-12-14T14:44:01;6.60;99.90
5775;DHT22;2913;51.120;6.772;2023-12-14T14:46:32;6.70;99.90
5775;DHT22;2913;51.120;6.772;2023-12-14T14:48:58;6.60;99.90
5775;DHT22;2913;51.120;6.772;2023-12-14T14:51:26;6.60;99.90
5775;DHT22;2913;51.120;6.772;2023-12-14T14:53:54;6.50;99.90
5775;DHT22;2913;51.120;6.772;2023-12-14T14:56:22;6.50;99.90
5775;DHT22;2913;51.120;6.772;2023-12-14T14:58:48;6.50;99.90
5775;DHT22;2913;51.120;6.772;2023-12-14T15:01:14;6.50;99.90
5775;DHT22;2913;51.120;6.772;2023-12-14T15:03:39;6.50;99.90
5775;DHT22;2913;51.120;6.772;2023-12-14T15:06:05;6.50;99.90
5775;DHT22;2913;51.120;6.772;2023-12-14T15:11:01;6.50;99.90
5775;DHT22;2913;51.120;6.772;2023-12-14T15:15:57;6.50;99.90
5775;DHT22;2913;51.120;6.772;2023-12-14T15:18:22;6.40;99.90
5775;DHT22;2913;51.120;6.772;2023-12-14T15:20:48;6.50;99.90
5775;DHT22;2913;51.120;6.772;2023-12-14T15:23:18;6.50;99.90
5775;DHT22;2913;51.120;6.772;2023-12-14T15:25:44;6.60;99.90
5775;DHT22;2913;51.120;6.772;2023-12-14T15:28:12;6.50;99.90
5775;DHT22;2913;51.120;6.772;2023-12-14T15:30:42;6.50;99.90
5775;DHT22;2913;51.120;6.772;2023-12-14T15:33:08;6.50;99.90
5775;DHT22;2913;51.120;6.772;2023-12-14T15:35:33;6.50;99.90
5775;DHT22;2913;51.120;6.772;2023-12-14T15:37:59;6.50;99.90
5775;DHT22;2913;51.120;6.772;2023-12-14T15:40:25;6.50;99.90
5775;DHT22;2913;51.120;6.772;2023-12-14T15:42:50;6.60;99.90
5775;DHT22;2913;51.120;6.772;2023-12-14T15:45:17;6.60;99.90
5775;DHT22;2913;51.120;6.772;2023-12-14T15:47:42;6.50;99.90
5775;DHT22;2913;51.120;6.772;2023-12-14T15:50:10;6.50;99.90
5775;DHT22;2913;51.120;6.772;2023-12-14T15:52:36;6.50;99.90
5775;DHT22;2913;51.120;6.772;2023-12-14T15:55:06;6.50;99.90
5775;DHT22;2913;51.120;6.772;2023-12-14T15:57:33;6.50;99.90
5775;DHT22;2913;51.120;6.772;2023-12-14T16:00:01;6.50;99.90
5775;DHT22;2913;51.120;6.772;2023-12-14T16:02:29;6.50;99.90
5775;DHT22;2913;51.120;6.772;2023-12-14T16:04:55;6.40;99.90
5775;DHT22;2913;51.120;6.772;2023-12-14T16:07:20;6.50;99.90
5775;DHT22;2913;51.120;6.772;2023-12-14T16:09:46;6.50;99.90
5775;DHT22;2913;51.120;6.772;2023-12-14T16:12:13;6.50;99.90
5775;DHT22;2913;51.120;6.772;2023-12-14T16:14:38;6.50;99.90
5775;DHT22;2913;51.120;6.772;2023-12-14T16:17:04;6.50;99.90
5775;DHT22;2913;51.120;6.772;2023-12-14T16:19:29;6.40;99.90
5775;DHT22;2913;51.120;6.772;2023-12-14T16:21:58;6.50;99.90
5775;DHT22;2913;51.120;6.772;2023-12-14T16:24:28;6.40;99.90
5775;DHT22;2913;51.120;6.772;2023-12-14T16:26:54;6.50;99.90
5775;DHT22;2913;51.120;6.772;2023-12-14T16:29:21;6.50;99.90
5775;DHT22;2913;51.120;6.772;2023-12-14T16:31:47;6.50;99.90
5775;DHT22;2913;51.120;6.772;2023-12-14T16:34:14;6.60;99.90
5775;DHT22;2913;51.120;6.772;2023-12-14T16:36:40;6.50;99.90
5775;DHT22;2913;51.120;6.772;2023-12-14T16:39:07;6.50;99.90
5775;DHT22;2913;51.120;6.772;2023-12-14T16:41:38;6.50;99.90
5775;DHT22;2913;51.120;6.772;2023-12-14T16:44:04;6.60;99.90
5775;DHT22;2913;51.120;6.772;2023-12-14T16:46:30;6.50;99.90
5775;DHT22;2913;51.120;6.772;2023-12-14T16:48:56;6.50;99.90
5775;DHT22;2913;51.120;6.772;2023-12-14T16:51:22;6.40;99.90
5775;DHT22;2913;51.120;6.772;2023-12-14T16:53:52;6.60;99.90
5775;DHT22;2913;51.120;6.772;2023-12-14T16:56:28;6.40;99.90
5775;DHT22;2913;51.120;6.772;2023-12-14T16:58:54;6.40;99.90
5775;DHT22;2913;51.120;6.772;2023-12-14T17:01:24;6.40;99.90
5775;DHT22;2913;51.120;6.772;2023-12-14T17:03:50;6.40;99.90
5775;DHT22;2913;51.120;6.772;2023-12-14T17:06:19;6.40;99.90
5775;DHT22;2913;51.120;6.772;2023-12-14T17:08:48;6.40;99.90
5775;DHT22;2913;51.120;6.772;2023-12-14T17:11:14;6.40;99.90
5775;DHT22;2913;51.120;6.772;2023-12-14T17:13:40;6.40;99.90
5775;DHT22;2913;51.120;6.772;2023-12-14T17:16:16;6.40;99.90
5775;DHT22;2913;51.120;6.772;2023-12-14T17:18:42;6.40;99.90
5775;DHT22;2913;51.120;6.772;2023-12-14T17:21:27;6.30;99.90
5775;DHT22;2913;51.120;6.772;2023-12-14T17:23:53;6.30;99.90
5775;DHT22;2913;51.120;6.772;2023-12-14T17:26:20;6.30;99.90
5775;DHT22;2913;51.120;6.772;2023-12-14T17:28:47;6.20;99.90
5775;DHT22;2913;51.120;6.772;2023-12-14T17:31:17;6.10;99.90
5775;DHT22;2913;51.120;6.772;2023-12-14T17:33:44;6.10;99.90
5775;DHT22;2913;51.120;6.772;2023-12-14T17:36:10;6.10;99.90
5775;DHT22;2913;51.120;6.772;2023-12-14T17:38:38;6.20;99.90
5775;DHT22;2913;51.120;6.772;2023-12-14T17:41:07;6.10;99.90
5775;DHT22;2913;51.120;6.772;2023-12-14T17:43:38;5.80;99.90